Time;durP1;ratioP1;P1;durP2;ratioP2;P2;SDS_P1;SDS_P2;PMS_P1;PMS_P2;Temp;Humidity;BMP_temperature;BMP_pressure;BME280_temperature;BME280_humidity;BME280_pressure;Samples;Min_cycle;Max_cycle;Signal;HPM_P1;HPM_P2
2023/08/20 00:00:53;0.00;0.00;0.62;0.00;0.00;0.62;5.20;4.80;;;33.90;34.60;;;;;;2220845;62;20374;-61
2023/08/20 00:03:40;0.00;0.00;0.62;0.00;0.00;0.62;6.13;4.90;;;33.90;34.60;;;;;;2219797;62;20377;-61
2023/08/20 00:06:26;0.00;0.00;0.62;0.00;0.00;0.62;5.20;4.80;;;33.90;34.60;;;;;;2221081;62;20482;-60
2023/08/20 00:09:10;0.00;0.00;0.62;0.00;0.00;0.62;5.20;4.73;;;33.90;34.60;;;;;;2221100;62;20432;-64
2023/08/20 00:11:55;0.00;0.00;0.62;0.00;0.00;0.62;5.13;4.63;;;33.90;34.60;;;;;;2220257;62;20369;-59
2023/08/20 00:14:54;0.00;0.00;0.62;0.00;0.00;0.62;5.73;5.10;;;33.90;34.60;;;;;;2220554;62;20429;-59
2023/08/20 00:17:41;0.00;0.00;0.62;0.00;0.00;0.62;5.13;4.63;;;33.90;34.60;;;;;;2220034;62;20370;-61
2023/08/20 00:20:28;0.00;0.00;0.62;0.00;0.00;0.62;5.00;4.60;;;33.90;34.60;;;;;;2220680;62;20856;-60
2023/08/20 00:23:14;0.00;0.00;0.62;0.00;0.00;0.62;5.43;5.03;;;33.90;34.60;;;;;;2220439;62;20398;-60
2023/08/20 00:26:00;0.00;0.00;0.62;0.00;0.00;0.62;5.70;5.20;;;33.90;34.60;;;;;;2219947;62;20405;-60
2023/08/20 00:28:44;0.00;0.00;0.62;0.00;0.00;0.62;5.50;5.00;;;33.90;34.60;;;;;;2220507;62;20544;-60
2023/08/20 00:31:29;0.00;0.00;0.62;0.00;0.00;0.62;5.50;5.00;;;33.90;34.60;;;;;;2220758;62;20390;-60
2023/08/20 00:34:14;0.00;0.00;0.62;0.00;0.00;0.62;5.67;5.17;;;33.90;34.60;;;;;;2219931;62;20402;-60
2023/08/20 00:37:00;0.00;0.00;0.62;0.00;0.00;0.62;5.13;4.63;;;33.90;34.60;;;;;;2220713;62;20849;-60
2023/08/20 00:39:45;0.00;0.00;0.62;0.00;0.00;0.62;4.57;4.17;;;33.90;34.50;;;;;;2219269;62;20439;-60
2023/08/20 00:42:30;0.00;0.00;0.62;0.00;0.00;0.62;4.90;4.50;;;33.80;34.50;;;;;;2220687;62;20454;-60
2023/08/20 00:45:16;0.00;0.00;0.62;0.00;0.00;0.62;5.40;4.77;;;33.80;34.50;;;;;;2220194;62;20389;-61
2023/08/20 00:48:03;0.00;0.00;0.62;0.00;0.00;0.62;4.80;4.40;;;33.90;34.50;;;;;;2219530;62;20431;-61
2023/08/20 00:50:48;0.00;0.00;0.62;0.00;0.00;0.62;4.83;4.43;;;33.90;34.50;;;;;;2220351;62;20378;-59
2023/08/20 00:53:34;0.00;0.00;0.62;0.00;0.00;0.62;4.50;4.20;;;33.90;34.50;;;;;;2219684;62;20854;-60
2023/08/20 00:56:18;0.00;0.00;0.62;0.00;0.00;0.62;3.83;3.53;;;33.90;34.50;;;;;;2220245;62;20382;-61
2023/08/20 00:59:05;0.00;0.00;0.62;0.00;0.00;0.62;4.70;4.30;;;33.80;34.40;;;;;;2220581;62;20373;-61
2023/08/20 01:01:50;0.00;0.00;0.62;0.00;0.00;0.62;4.20;3.90;;;33.80;34.40;;;;;;2219738;62;20374;-60
2023/08/20 01:04:35;0.00;0.00;0.62;0.00;0.00;0.62;4.10;3.80;;;33.80;34.40;;;;;;2220282;62;20415;-59
2023/08/20 01:07:30;0.00;0.00;0.62;0.00;0.00;0.62;4.43;4.03;;;33.80;34.40;;;;;;2220556;62;20807;-60
2023/08/20 01:10:27;0.00;0.00;0.62;0.00;0.00;0.62;3.57;3.27;;;33.80;34.30;;;;;;2219489;62;20774;-62
2023/08/20 01:13:12;0.00;0.00;0.62;0.00;0.00;0.62;4.87;4.40;;;33.80;34.30;;;;;;2219463;62;20381;-61
2023/08/20 01:15:57;0.00;0.00;0.62;0.00;0.00;0.62;4.27;3.97;;;33.80;34.30;;;;;;2220365;62;20432;-59
2023/08/20 01:18:41;0.00;0.00;0.62;0.00;0.00;0.62;5.47;4.23;;;33.80;34.30;;;;;;2220396;62;20414;-60
2023/08/20 01:21:39;0.00;0.00;0.62;0.00;0.00;0.62;4.20;3.80;;;33.80;34.30;;;;;;2220201;62;20407;-59
2023/08/20 01:24:44;0.00;0.00;0.62;0.00;0.00;0.62;4.13;3.80;;;33.80;34.20;;;;;;2219429;62;20389;-60
2023/08/20 01:27:45;0.00;0.00;0.62;0.00;0.00;0.62;3.97;3.57;;;33.80;34.20;;;;;;2219941;62;20863;-60
2023/08/20 01:30:31;0.00;0.00;0.62;0.00;0.00;0.62;4.33;3.33;;;33.80;34.20;;;;;;2219856;62;20927;-60
2023/08/20 01:33:16;0.00;0.00;0.62;0.00;0.00;0.62;3.87;3.53;;;33.80;34.20;;;;;;2219626;62;20812;-59
2023/08/20 01:36:01;0.00;0.00;0.62;0.00;0.00;0.62;3.90;3.50;;;33.80;34.20;;;;;;2220097;62;20885;-61
2023/08/20 01:38:46;0.00;0.00;0.62;0.00;0.00;0.62;3.77;3.37;;;33.80;34.20;;;;;;2219354;62;20898;-61
2023/08/20 01:41:30;0.00;0.00;0.62;0.00;0.00;0.62;4.23;2.90;;;33.80;34.10;;;;;;2219752;62;20438;-60
2023/08/20 01:44:18;0.00;0.00;0.62;0.00;0.00;0.62;3.30;3.00;;;33.80;34.10;;;;;;2219843;62;20806;-60
2023/08/20 01:47:04;0.00;0.00;0.62;0.00;0.00;0.62;3.63;3.33;;;33.80;34.10;;;;;;2215364;62;20668;-61
2023/08/20 01:49:49;0.00;0.00;0.62;0.00;0.00;0.62;3.80;3.47;;;33.70;34.00;;;;;;2220455;62;20394;-63
2023/08/20 01:52:34;0.00;0.00;0.62;0.00;0.00;0.62;2.97;2.60;;;33.80;34.00;;;;;;2220571;62;20373;-61
2023/08/20 01:55:19;0.00;0.00;0.62;0.00;0.00;0.62;3.07;2.73;;;33.70;34.00;;;;;;2219672;62;20393;-61
2023/08/20 01:58:04;0.00;0.00;0.62;0.00;0.00;0.62;3.40;3.10;;;33.70;34.00;;;;;;2220488;62;20452;-60
2023/08/20 02:00:49;0.00;0.00;0.62;0.00;0.00;0.62;3.07;2.83;;;33.70;33.90;;;;;;2219342;62;20467;-60
2023/08/20 02:03:37;0.00;0.00;0.62;0.00;0.00;0.62;2.80;2.60;;;33.70;33.90;;;;;;2220516;62;20976;-61
2023/08/20 02:06:22;0.00;0.00;0.62;0.00;0.00;0.62;3.33;3.03;;;33.70;33.90;;;;;;2220689;62;20386;-61
2023/08/20 02:09:07;0.00;0.00;0.62;0.00;0.00;0.62;3.00;2.70;;;33.70;33.90;;;;;;2219852;62;20386;-60
2023/08/20 02:11:51;0.00;0.00;0.62;0.00;0.00;0.62;3.23;2.93;;;33.70;33.90;;;;;;2220716;62;20374;-60
2023/08/20 02:14:36;0.00;0.00;0.62;0.00;0.00;0.62;3.10;2.80;;;33.70;33.90;;;;;;2220700;62;20481;-61
2023/08/20 02:17:20;0.00;0.00;0.62;0.00;0.00;0.62;3.20;2.90;;;33.60;33.80;;;;;;2220581;62;20434;-61
2023/08/20 02:20:09;0.00;0.00;0.62;0.00;0.00;0.62;3.40;3.10;;;33.60;33.80;;;;;;2220563;62;20519;-60
2023/08/20 02:22:54;0.00;0.00;0.62;0.00;0.00;0.62;3.40;2.53;;;33.60;33.80;;;;;;2220420;62;20381;-59
2023/08/20 02:25:39;0.00;0.00;0.62;0.00;0.00;0.62;3.20;2.90;;;33.60;33.80;;;;;;2221056;62;20493;-60
2023/08/20 02:28:24;0.00;0.00;0.62;0.00;0.00;0.62;2.80;2.60;;;33.60;33.70;;;;;;2221201;62;20401;-60
2023/08/20 02:31:09;0.00;0.00;0.62;0.00;0.00;0.62;3.70;2.80;;;33.60;33.80;;;;;;2220391;62;20382;-60
2023/08/20 02:33:53;0.00;0.00;0.62;0.00;0.00;0.62;3.20;2.90;;;33.60;33.70;;;;;;2220615;62;20481;-60
2023/08/20 02:36:39;0.00;0.00;0.62;0.00;0.00;0.62;3.07;2.60;;;33.60;33.80;;;;;;2220674;62;20373;-60
2023/08/20 02:39:24;0.00;0.00;0.62;0.00;0.00;0.62;2.80;2.60;;;33.60;33.80;;;;;;2220336;62;20382;-61
2023/08/20 02:42:09;0.00;0.00;0.62;0.00;0.00;0.62;3.30;2.87;;;33.60;33.70;;;;;;2221186;62;20462;-60
2023/08/20 02:44:54;0.00;0.00;0.62;0.00;0.00;0.62;3.50;2.70;;;33.60;33.70;;;;;;2220317;62;20486;-59
2023/08/20 02:47:38;0.00;0.00;0.62;0.00;0.00;0.62;2.60;2.40;;;33.60;33.70;;;;;;2220983;62;20552;-58
2023/08/20 02:50:23;0.00;0.00;0.62;0.00;0.00;0.62;3.13;2.13;;;33.60;33.70;;;;;;2221158;62;20381;-62
2023/08/20 02:53:10;0.00;0.00;0.62;0.00;0.00;0.62;2.80;2.30;;;33.60;33.70;;;;;;2219571;62;20891;-60
2023/08/20 02:55:54;0.00;0.00;0.62;0.00;0.00;0.62;2.87;2.60;;;33.60;33.70;;;;;;2220723;62;20429;-55
2023/08/20 02:58:39;0.00;0.00;0.62;0.00;0.00;0.62;3.00;2.43;;;33.60;33.70;;;;;;2220967;62;20389;-59
2023/08/20 03:01:26;0.00;0.00;0.62;0.00;0.00;0.62;3.10;2.80;;;33.60;33.70;;;;;;2219903;62;20788;-58
2023/08/20 03:04:12;0.00;0.00;0.62;0.00;0.00;0.62;2.70;2.50;;;33.60;33.60;;;;;;2220193;62;20968;-59
2023/08/20 03:06:56;0.00;0.00;0.62;0.00;0.00;0.62;3.63;2.73;;;33.50;33.60;;;;;;2220641;62;20934;-59
2023/08/20 03:09:42;0.00;0.00;0.62;0.00;0.00;0.62;2.87;2.27;;;33.50;33.60;;;;;;2221021;62;20373;-59
2023/08/20 03:12:27;0.00;0.00;0.62;0.00;0.00;0.62;3.27;2.30;;;33.50;33.60;;;;;;2221068;62;20377;-58
2023/08/20 03:15:11;0.00;0.00;0.62;0.00;0.00;0.62;3.37;3.07;;;33.50;33.60;;;;;;2219195;62;20446;-55
2023/08/20 03:17:56;0.00;0.00;0.62;0.00;0.00;0.62;3.87;2.80;;;33.50;33.60;;;;;;2221006;62;20525;-57
2023/08/20 03:20:41;0.00;0.00;0.62;0.00;0.00;0.62;1.90;1.70;;;33.50;33.60;;;;;;2220796;62;20896;-57
2023/08/20 03:23:25;0.00;0.00;0.62;0.00;0.00;0.62;3.60;2.57;;;33.50;33.60;;;;;;2219971;62;20709;-60
2023/08/20 03:26:11;0.00;0.00;0.62;0.00;0.00;0.62;3.53;2.80;;;33.50;33.60;;;;;;2220864;62;20394;-60
2023/08/20 03:28:56;0.00;0.00;0.62;0.00;0.00;0.62;2.70;2.50;;;33.50;33.60;;;;;;2220420;62;20390;-60
2023/08/20 03:31:40;0.00;0.00;0.62;0.00;0.00;0.62;3.17;2.87;;;33.50;33.60;;;;;;2220189;62;20466;-59
2023/08/20 03:34:25;0.00;0.00;0.62;0.00;0.00;0.62;2.80;2.50;;;33.50;33.50;;;;;;2220561;62;20443;-56
2023/08/20 03:37:09;0.00;0.00;0.62;0.00;0.00;0.62;3.20;2.37;;;33.50;33.60;;;;;;2219664;62;20714;-61
2023/08/20 03:39:54;0.00;0.00;0.62;0.00;0.00;0.62;3.90;2.63;;;33.50;33.50;;;;;;2220741;62;20427;-57
2023/08/20 03:42:40;0.00;0.00;0.62;0.00;0.00;0.62;2.80;2.50;;;33.40;33.40;;;;;;2220823;62;20378;-59
2023/08/20 03:45:24;0.00;0.00;0.62;0.00;0.00;0.62;2.47;2.27;;;33.40;33.40;;;;;;2219492;62;20406;-59
2023/08/20 03:48:09;0.00;0.00;0.62;0.00;0.00;0.62;2.53;2.30;;;33.40;33.40;;;;;;2220472;62;20452;-58
2023/08/20 03:50:54;0.00;0.00;0.62;0.00;0.00;0.62;2.20;1.97;;;33.40;33.40;;;;;;2220857;62;20470;-59
2023/08/20 03:53:39;0.00;0.00;0.62;0.00;0.00;0.62;2.57;2.37;;;33.40;33.50;;;;;;2219330;62;20427;-57
2023/08/20 03:56:23;0.00;0.00;0.62;0.00;0.00;0.62;2.10;1.90;;;33.40;33.40;;;;;;2220510;62;20810;-59
2023/08/20 03:59:09;0.00;0.00;0.62;0.00;0.00;0.62;2.40;2.20;;;33.40;33.40;;;;;;2219515;62;20875;-55
2023/08/20 04:01:54;0.00;0.00;0.62;0.00;0.00;0.62;2.90;2.53;;;33.40;33.40;;;;;;2220848;62;20378;-59
2023/08/20 04:04:39;0.00;0.00;0.62;0.00;0.00;0.62;3.13;2.37;;;33.40;33.50;;;;;;2220290;62;20407;-56
2023/08/20 04:07:23;0.00;0.00;0.62;0.00;0.00;0.62;2.40;2.13;;;33.40;33.40;;;;;;2219589;62;20486;-59
2023/08/20 04:10:09;0.00;0.00;0.62;0.00;0.00;0.62;2.60;2.30;;;33.40;33.50;;;;;;2220903;62;20378;-58
2023/08/20 04:12:54;0.00;0.00;0.62;0.00;0.00;0.62;2.83;1.93;;;33.40;33.40;;;;;;2220696;62;20431;-60
2023/08/20 04:15:41;0.00;0.00;0.62;0.00;0.00;0.62;2.83;2.53;;;33.40;33.40;;;;;;2219876;62;20398;-55
2023/08/20 04:18:26;0.00;0.00;0.62;0.00;0.00;0.62;2.83;2.30;;;33.40;33.40;;;;;;2220876;62;20386;-56
2023/08/20 04:21:12;0.00;0.00;0.62;0.00;0.00;0.62;6.13;2.47;;;33.40;33.40;;;;;;2220038;62;20373;-61
2023/08/20 04:23:56;0.00;0.00;0.62;0.00;0.00;0.62;2.53;2.33;;;33.40;33.40;;;;;;2220098;62;20815;-58
2023/08/20 04:26:41;0.00;0.00;0.62;0.00;0.00;0.62;2.23;2.03;;;33.30;33.30;;;;;;2220510;62;20988;-57
2023/08/20 04:29:27;0.00;0.00;0.62;0.00;0.00;0.62;2.90;2.33;;;33.30;33.30;;;;;;2219487;62;20934;-56
2023/08/20 04:32:13;0.00;0.00;0.62;0.00;0.00;0.62;2.47;2.00;;;33.30;33.40;;;;;;2219923;62;20422;-58
2023/08/20 04:34:58;0.00;0.00;0.62;0.00;0.00;0.62;2.93;2.10;;;33.30;33.30;;;;;;2219668;62;20397;-60
2023/08/20 04:37:44;0.00;0.00;0.62;0.00;0.00;0.62;2.87;2.50;;;33.30;33.30;;;;;;2219485;62;20435;-62
2023/08/20 04:40:28;0.00;0.00;0.62;0.00;0.00;0.62;2.60;2.40;;;33.30;33.30;;;;;;2220257;62;20475;-58
2023/08/20 04:43:13;0.00;0.00;0.62;0.00;0.00;0.62;2.50;2.20;;;33.30;33.30;;;;;;2219791;62;20462;-57
2023/08/20 04:45:58;0.00;0.00;0.62;0.00;0.00;0.62;2.67;2.47;;;33.30;33.30;;;;;;2220184;62;20450;-55
2023/08/20 04:48:45;0.00;0.00;0.62;0.00;0.00;0.62;3.53;2.30;;;33.30;33.30;;;;;;2220294;62;20454;-58
2023/08/20 04:51:29;0.00;0.00;0.62;0.00;0.00;0.62;2.90;2.10;;;33.30;33.30;;;;;;2219557;62;20402;-58
2023/08/20 04:54:14;0.00;0.00;0.62;0.00;0.00;0.62;2.43;2.17;;;33.30;33.30;;;;;;2219792;62;20429;-58
2023/08/20 04:56:59;0.00;0.00;0.62;0.00;0.00;0.62;2.50;2.00;;;33.20;33.20;;;;;;2220292;62;20457;-58
2023/08/20 04:59:45;0.00;0.00;0.62;0.00;0.00;0.62;2.47;2.17;;;33.30;33.30;;;;;;2219493;62;20744;-58
2023/08/20 05:03:01;0.00;0.00;0.62;0.00;0.00;0.62;2.87;2.57;;;33.20;33.20;;;;;;2220432;62;20406;-60
2023/08/20 05:05:50;0.00;0.00;0.62;0.00;0.00;0.62;2.70;2.37;;;33.20;33.20;;;;;;2219698;62;20390;-60
2023/08/20 05:08:34;0.00;0.00;0.62;0.00;0.00;0.62;3.97;2.40;;;33.20;33.20;;;;;;2220142;62;20410;-58
2023/08/20 05:11:19;0.00;0.00;0.62;0.00;0.00;0.62;2.20;2.00;;;33.20;33.20;;;;;;2220138;62;20473;-60
2023/08/20 05:14:04;0.00;0.00;0.62;0.00;0.00;0.62;2.13;1.93;;;33.20;33.20;;;;;;2219563;62;20398;-60
2023/08/20 05:16:48;0.00;0.00;0.62;0.00;0.00;0.62;3.20;2.40;;;33.20;33.20;;;;;;2220197;62;20438;-57
2023/08/20 05:19:33;0.00;0.00;0.62;0.00;0.00;0.62;3.53;2.60;;;33.20;33.20;;;;;;2220035;62;20423;-58
2023/08/20 05:22:20;0.00;0.00;0.62;0.00;0.00;0.62;2.50;2.30;;;33.20;33.20;;;;;;2220072;62;20963;-59
2023/08/20 05:25:05;0.00;0.00;0.62;0.00;0.00;0.62;2.40;2.13;;;33.20;33.20;;;;;;2220033;62;20803;-59
2023/08/20 05:27:50;0.00;0.00;0.62;0.00;0.00;0.62;3.30;2.40;;;33.20;33.20;;;;;;2220077;62;20930;-59
2023/08/20 05:30:35;0.00;0.00;0.62;0.00;0.00;0.62;2.30;2.10;;;33.20;33.20;;;;;;2220243;62;20397;-58
2023/08/20 05:33:20;0.00;0.00;0.62;0.00;0.00;0.62;2.63;2.17;;;33.20;33.20;;;;;;2219499;62;20713;-61
2023/08/20 05:36:05;0.00;0.00;0.62;0.00;0.00;0.62;2.77;2.50;;;33.20;33.20;;;;;;2219547;62;20385;-59
2023/08/20 05:38:51;0.00;0.00;0.62;0.00;0.00;0.62;2.93;2.47;;;33.20;33.20;;;;;;2219852;62;20829;-60
2023/08/20 05:41:36;0.00;0.00;0.62;0.00;0.00;0.62;3.50;2.10;;;33.20;33.20;;;;;;2219959;62;20382;-59
2023/08/20 05:44:21;0.00;0.00;0.62;0.00;0.00;0.62;2.60;2.33;;;33.20;33.20;;;;;;2218947;62;20468;-59
2023/08/20 05:47:08;0.00;0.00;0.62;0.00;0.00;0.62;2.60;2.40;;;33.20;33.20;;;;;;2220300;62;20402;-58
2023/08/20 05:49:52;0.00;0.00;0.62;0.00;0.00;0.62;2.47;2.07;;;33.20;33.20;;;;;;2219901;62;20427;-52
2023/08/20 05:52:37;0.00;0.00;0.62;0.00;0.00;0.62;2.80;2.30;;;33.20;33.20;;;;;;2220534;62;20407;-60
2023/08/20 05:55:24;0.00;0.00;0.62;0.00;0.00;0.62;2.50;2.27;;;33.20;33.20;;;;;;2220322;62;20391;-60
2023/08/20 05:58:09;0.00;0.00;0.62;0.00;0.00;0.62;2.63;2.30;;;33.10;33.20;;;;;;2219305;62;20370;-59
2023/08/20 06:00:54;0.00;0.00;0.62;0.00;0.00;0.62;2.37;2.17;;;33.20;33.20;;;;;;2220535;62;21093;-58
2023/08/20 06:03:39;0.00;0.00;0.62;0.00;0.00;0.62;3.17;2.40;;;33.10;33.20;;;;;;2219448;62;20370;-59
2023/08/20 06:06:23;0.00;0.00;0.62;0.00;0.00;0.62;2.67;2.10;;;33.10;33.10;;;;;;2219958;62;20401;-58
2023/08/20 06:09:08;0.00;0.00;0.62;0.00;0.00;0.62;3.20;2.50;;;33.10;33.10;;;;;;2220597;62;20996;-59
2023/08/20 06:11:54;0.00;0.00;0.62;0.00;0.00;0.62;2.73;2.43;;;33.10;33.10;;;;;;2220421;62;20385;-59
2023/08/20 06:14:38;0.00;0.00;0.62;0.00;0.00;0.62;2.87;2.47;;;33.10;33.10;;;;;;2220001;62;20991;-55
2023/08/20 06:17:23;0.00;0.00;0.62;0.00;0.00;0.62;2.93;2.60;;;33.10;33.10;;;;;;2219920;62;20494;-59
2023/08/20 06:20:11;0.00;0.00;0.62;0.00;0.00;0.62;3.20;2.60;;;33.10;33.10;;;;;;2219718;62;20427;-58
2023/08/20 06:22:55;0.00;0.00;0.62;0.00;0.00;0.62;3.47;2.57;;;33.10;33.10;;;;;;2220431;62;20470;-59
2023/08/20 06:25:40;0.00;0.00;0.62;0.00;0.00;0.62;2.90;2.60;;;33.10;33.10;;;;;;2220357;62;20393;-57
2023/08/20 06:28:26;0.00;0.00;0.62;0.00;0.00;0.62;2.93;2.20;;;33.10;33.10;;;;;;2219703;62;20405;-58
2023/08/20 06:31:10;0.00;0.00;0.62;0.00;0.00;0.62;2.83;2.53;;;33.10;33.10;;;;;;2220344;62;20385;-60
2023/08/20 06:33:55;0.00;0.00;0.62;0.00;0.00;0.62;2.80;2.60;;;33.10;33.10;;;;;;2219848;62;20887;-59
2023/08/20 06:36:39;0.00;0.00;0.62;0.00;0.00;0.62;3.03;2.77;;;33.10;33.10;;;;;;2220183;62;20414;-57
2023/08/20 06:39:24;0.00;0.00;0.62;0.00;0.00;0.62;3.20;2.73;;;33.10;33.10;;;;;;2220250;62;20417;-56
2023/08/20 06:42:09;0.00;0.00;0.62;0.00;0.00;0.62;2.60;2.40;;;33.10;33.10;;;;;;2219877;62;20401;-59
2023/08/20 06:44:56;0.00;0.00;0.62;0.00;0.00;0.62;4.43;2.57;;;33.10;33.00;;;;;;2216901;62;20442;-55
2023/08/20 06:47:40;0.00;0.00;0.62;0.00;0.00;0.62;2.80;2.50;;;33.10;33.00;;;;;;2220293;62;20433;-57
2023/08/20 06:50:25;0.00;0.00;0.62;0.00;0.00;0.62;2.90;2.60;;;33.10;33.00;;;;;;2220313;62;20405;-59
2023/08/20 06:53:10;0.00;0.00;0.62;0.00;0.00;0.62;2.90;2.60;;;33.10;33.00;;;;;;2220534;62;20542;-56
2023/08/20 06:55:54;0.00;0.00;0.62;0.00;0.00;0.62;3.67;2.77;;;33.10;33.00;;;;;;2221039;62;20486;-57
2023/08/20 06:58:41;0.00;0.00;0.62;0.00;0.00;0.62;2.87;2.57;;;33.10;33.00;;;;;;2220420;62;20514;-57
2023/08/20 07:01:27;0.00;0.00;0.62;0.00;0.00;0.62;3.20;2.87;;;33.10;33.00;;;;;;2220931;62;20406;-57
2023/08/20 07:04:12;0.00;0.00;0.62;0.00;0.00;0.62;3.17;2.70;;;33.10;33.00;;;;;;2219897;62;20422;-60
2023/08/20 07:06:58;0.00;0.00;0.62;0.00;0.00;0.62;2.80;2.50;;;33.10;33.00;;;;;;2220845;62;20393;-59
2023/08/20 07:09:42;0.00;0.00;0.62;0.00;0.00;0.62;2.93;2.63;;;33.10;33.00;;;;;;2221311;62;20378;-57
2023/08/20 07:12:27;0.00;0.00;0.62;0.00;0.00;0.62;3.20;2.70;;;33.10;33.00;;;;;;2220237;62;20457;-56
2023/08/20 07:15:11;0.00;0.00;0.62;0.00;0.00;0.62;2.87;2.53;;;33.10;33.00;;;;;;2220621;62;20454;-60
2023/08/20 07:17:57;0.00;0.00;0.62;0.00;0.00;0.62;3.07;2.20;;;33.10;33.00;;;;;;2221042;62;20362;-57
2023/08/20 07:20:42;0.00;0.00;0.62;0.00;0.00;0.62;2.37;2.10;;;33.10;33.00;;;;;;2220216;62;20591;-60
2023/08/20 07:23:27;0.00;0.00;0.62;0.00;0.00;0.62;3.47;3.10;;;33.10;33.00;;;;;;2220662;62;20908;-58
2023/08/20 07:26:12;0.00;0.00;0.62;0.00;0.00;0.62;2.77;2.43;;;33.10;33.00;;;;;;2220783;62;20455;-61
2023/08/20 07:28:56;0.00;0.00;0.62;0.00;0.00;0.62;2.93;2.60;;;33.10;32.90;;;;;;2220800;62;20394;-58
2023/08/20 07:31:41;0.00;0.00;0.62;0.00;0.00;0.62;3.43;2.70;;;33.10;32.90;;;;;;2220776;62;20451;-58
2023/08/20 07:34:27;0.00;0.00;0.62;0.00;0.00;0.62;2.90;2.17;;;33.10;32.90;;;;;;2219773;62;20394;-57
2023/08/20 07:37:12;0.00;0.00;0.62;0.00;0.00;0.62;2.57;2.30;;;33.10;32.90;;;;;;2220721;62;20439;-54
2023/08/20 07:39:56;0.00;0.00;0.62;0.00;0.00;0.62;3.97;2.90;;;33.10;33.00;;;;;;2220609;62;20370;-56
2023/08/20 07:42:42;0.00;0.00;0.62;0.00;0.00;0.62;2.90;2.60;;;33.10;32.90;;;;;;2219958;62;20421;-58
2023/08/20 07:45:26;0.00;0.00;0.62;0.00;0.00;0.62;3.10;2.50;;;33.10;32.90;;;;;;2220252;62;20462;-59
2023/08/20 07:48:11;0.00;0.00;0.62;0.00;0.00;0.62;2.50;2.03;;;33.10;32.90;;;;;;2220636;62;20402;-61
2023/08/20 07:50:57;0.00;0.00;0.62;0.00;0.00;0.62;2.80;2.27;;;33.10;32.90;;;;;;2220697;62;20924;-60
2023/08/20 07:53:42;0.00;0.00;0.62;0.00;0.00;0.62;3.10;2.40;;;33.10;32.90;;;;;;2220640;62;20919;-60
2023/08/20 07:56:27;0.00;0.00;0.62;0.00;0.00;0.62;2.57;2.23;;;33.10;32.90;;;;;;2220088;62;20363;-60
2023/08/20 07:59:11;0.00;0.00;0.62;0.00;0.00;0.62;2.60;2.40;;;33.10;32.90;;;;;;2221029;62;20821;-58
2023/08/20 08:01:56;0.00;0.00;0.62;0.00;0.00;0.62;2.60;2.33;;;33.10;32.90;;;;;;2220609;62;20382;-57
2023/08/20 08:04:41;0.00;0.00;0.62;0.00;0.00;0.62;2.33;1.97;;;33.10;32.90;;;;;;2219747;62;20444;-60
2023/08/20 08:07:27;0.00;0.00;0.62;0.00;0.00;0.62;2.30;2.10;;;33.10;32.90;;;;;;2220728;62;20407;-60
2023/08/20 08:10:12;0.00;0.00;0.62;0.00;0.00;0.62;2.47;2.20;;;33.10;32.90;;;;;;2220941;62;20386;-58
2023/08/20 08:12:56;0.00;0.00;0.62;0.00;0.00;0.62;2.50;2.20;;;33.10;32.90;;;;;;2220222;62;20510;-60
2023/08/20 08:15:41;0.00;0.00;0.62;0.00;0.00;0.62;2.50;2.13;;;33.10;32.80;;;;;;2220899;62;20976;-60
2023/08/20 08:18:27;0.00;0.00;0.62;0.00;0.00;0.62;2.27;1.93;;;33.10;32.90;;;;;;2219882;62;20402;-61
2023/08/20 08:21:11;0.00;0.00;0.62;0.00;0.00;0.62;2.90;2.33;;;33.10;33.50;;;;;;2220958;62;20397;-58
2023/08/20 08:23:57;0.00;0.00;0.62;0.00;0.00;0.62;2.50;2.10;;;33.10;32.90;;;;;;2220221;62;20373;-58
2023/08/20 08:26:41;0.00;0.00;0.62;0.00;0.00;0.62;2.83;2.00;;;33.10;32.90;;;;;;2220012;62;20446;-58
2023/08/20 08:29:26;0.00;0.00;0.62;0.00;0.00;0.62;2.10;1.77;;;33.10;32.90;;;;;;2220748;62;20369;-62
2023/08/20 08:32:10;0.00;0.00;0.62;0.00;0.00;0.62;3.00;2.40;;;33.10;32.90;;;;;;2220556;62;20469;-60
2023/08/20 08:34:55;0.00;0.00;0.62;0.00;0.00;0.62;2.53;2.00;;;33.10;32.90;;;;;;2219766;62;20393;-60
2023/08/20 08:37:40;0.00;0.00;0.62;0.00;0.00;0.62;2.60;2.40;;;33.10;32.90;;;;;;2220807;62;20369;-59
2023/08/20 08:40:28;0.00;0.00;0.62;0.00;0.00;0.62;2.87;2.30;;;33.10;32.90;;;;;;2219816;62;20378;-60
2023/08/20 08:43:16;0.00;0.00;0.62;0.00;0.00;0.62;2.60;2.20;;;33.10;32.90;;;;;;2220278;62;20633;-59
2023/08/20 08:46:03;0.00;0.00;0.62;0.00;0.00;0.62;2.50;1.97;;;33.10;32.90;;;;;;2220520;62;20446;-61
2023/08/20 08:48:48;0.00;0.00;0.62;0.00;0.00;0.62;2.43;2.00;;;33.10;33.00;;;;;;2220220;62;20948;-61
2023/08/20 08:51:33;0.00;0.00;0.62;0.00;0.00;0.62;2.30;2.00;;;33.10;33.00;;;;;;2220509;62;20859;-59
2023/08/20 08:54:19;0.00;0.00;0.62;0.00;0.00;0.62;2.73;2.00;;;33.10;33.00;;;;;;2219966;62;20398;-60
2023/08/20 08:57:05;0.00;0.00;0.62;0.00;0.00;0.62;2.90;1.80;;;33.10;33.00;;;;;;2220099;62;20377;-61
2023/08/20 08:59:50;0.00;0.00;0.62;0.00;0.00;0.62;2.50;1.73;;;33.10;33.00;;;;;;2220508;62;20434;-59
2023/08/20 09:02:34;0.00;0.00;0.62;0.00;0.00;0.62;2.10;1.80;;;33.10;33.00;;;;;;2219445;62;20410;-60
2023/08/20 09:05:19;0.00;0.00;0.62;0.00;0.00;0.62;2.50;1.87;;;33.10;33.00;;;;;;2220538;62;20397;-60
2023/08/20 09:08:05;0.00;0.00;0.62;0.00;0.00;0.62;1.97;1.70;;;33.10;33.00;;;;;;2220456;62;20443;-61
2023/08/20 09:10:51;0.00;0.00;0.62;0.00;0.00;0.62;2.10;1.80;;;33.10;33.00;;;;;;2219627;62;20403;-62
2023/08/20 09:13:39;0.00;0.00;0.62;0.00;0.00;0.62;2.97;2.13;;;33.10;33.00;;;;;;2220019;62;20423;-59
2023/08/20 09:16:30;0.00;0.00;0.62;0.00;0.00;0.62;2.83;1.90;;;33.20;33.10;;;;;;2220626;62;20394;-59
2023/08/20 09:19:14;0.00;0.00;0.62;0.00;0.00;0.62;2.63;1.80;;;33.20;33.10;;;;;;2220137;62;20370;-59
2023/08/20 09:21:59;0.00;0.00;0.62;0.00;0.00;0.62;2.03;1.60;;;33.10;33.00;;;;;;2220343;62;20481;-62
2023/08/20 09:24:46;0.00;0.00;0.62;0.00;0.00;0.62;2.10;1.60;;;33.10;33.00;;;;;;2219459;62;20809;-57
2023/08/20 09:27:40;0.00;0.00;0.62;0.00;0.00;0.62;2.03;1.60;;;33.20;33.10;;;;;;2220425;62;20426;-60
2023/08/20 09:30:26;0.00;0.00;0.62;0.00;0.00;0.62;2.47;1.93;;;33.20;33.10;;;;;;2220623;62;20401;-65
2023/08/20 09:33:14;0.00;0.00;0.62;0.00;0.00;0.62;3.27;1.80;;;33.20;33.10;;;;;;2219462;62;20434;-61
2023/08/20 09:35:58;0.00;0.00;0.62;0.00;0.00;0.62;2.00;1.67;;;33.20;33.10;;;;;;2220632;62;20393;-61
2023/08/20 09:38:43;0.00;0.00;0.62;0.00;0.00;0.62;2.37;1.63;;;33.20;33.10;;;;;;2220609;62;20549;-61
2023/08/20 09:41:29;0.00;0.00;0.62;0.00;0.00;0.62;2.43;1.90;;;33.20;33.10;;;;;;2219797;62;20787;-61
2023/08/20 09:44:15;0.00;0.00;0.62;0.00;0.00;0.62;2.57;2.10;;;33.10;33.00;;;;;;2220167;62;20781;-61
2023/08/20 09:47:02;0.00;0.00;0.62;0.00;0.00;0.62;1.97;1.77;;;33.20;33.10;;;;;;2219990;62;20402;-60
2023/08/20 09:49:48;0.00;0.00;0.62;0.00;0.00;0.62;2.13;1.57;;;33.20;33.10;;;;;;2220487;62;20381;-61
2023/08/20 09:52:40;0.00;0.00;0.62;0.00;0.00;0.62;2.37;2.10;;;33.20;33.10;;;;;;2220422;62;20413;-57
2023/08/20 09:55:32;0.00;0.00;0.62;0.00;0.00;0.62;2.17;1.60;;;33.20;33.10;;;;;;2219411;62;20931;-61
2023/08/20 09:58:21;0.00;0.00;0.62;0.00;0.00;0.62;2.47;1.73;;;33.20;33.10;;;;;;2220388;62;20819;-60
2023/08/20 10:01:07;0.00;0.00;0.62;0.00;0.00;0.62;1.80;1.57;;;33.20;33.20;;;;;;2220312;62;20370;-61
2023/08/20 10:03:54;0.00;0.00;0.62;0.00;0.00;0.62;1.93;1.40;;;33.20;33.20;;;;;;2219598;62;20466;-59
2023/08/20 10:06:40;0.00;0.00;0.62;0.00;0.00;0.62;2.00;1.73;;;33.20;33.20;;;;;;2220242;62;20429;-63
2023/08/20 10:09:25;0.00;0.00;0.62;0.00;0.00;0.62;2.03;1.83;;;33.20;33.20;;;;;;2219750;62;20774;-61
2023/08/20 10:12:10;0.00;0.00;0.62;0.00;0.00;0.62;2.30;1.83;;;33.20;33.20;;;;;;2220199;62;20418;-59
2023/08/20 10:14:57;0.00;0.00;0.62;0.00;0.00;0.62;1.80;1.63;;;33.30;33.20;;;;;;2220296;62;20955;-59
2023/08/20 10:17:44;0.00;0.00;0.62;0.00;0.00;0.62;1.70;1.50;;;33.20;33.20;;;;;;2219875;62;20903;-61
2023/08/20 10:20:31;0.00;0.00;0.62;0.00;0.00;0.62;2.70;2.00;;;33.30;33.20;;;;;;2220581;62;20385;-61
2023/08/20 10:23:20;0.00;0.00;0.62;0.00;0.00;0.62;1.87;1.50;;;33.30;33.20;;;;;;2219960;62;20377;-61
2023/08/20 10:26:09;0.00;0.00;0.62;0.00;0.00;0.62;2.00;1.67;;;33.30;33.20;;;;;;2220733;62;20380;-59
2023/08/20 10:29:29;0.00;0.00;0.62;0.00;0.00;0.62;2.47;1.63;;;33.30;33.30;;;;;;2221527;62;20381;-59
2023/08/20 10:32:14;0.00;0.00;0.62;0.00;0.00;0.62;1.90;1.43;;;33.30;33.30;;;;;;2220173;62;20382;-59
2023/08/20 10:34:59;0.00;0.00;0.62;0.00;0.00;0.62;1.67;1.40;;;33.30;33.30;;;;;;2220571;62;20519;-59
2023/08/20 10:38:05;0.00;0.00;0.62;0.00;0.00;0.62;2.00;1.50;;;33.40;33.40;;;;;;2220475;62;20378;-56
2023/08/20 10:40:54;0.00;0.00;0.62;0.00;0.00;0.62;2.10;1.50;;;33.40;33.40;;;;;;2220016;62;20430;-57
2023/08/20 10:43:40;0.00;0.00;0.62;0.00;0.00;0.62;1.90;1.63;;;33.30;33.40;;;;;;2220258;62;20373;-58
2023/08/20 10:46:25;0.00;0.00;0.62;0.00;0.00;0.62;2.10;1.73;;;33.40;33.40;;;;;;2220202;62;20902;-60
2023/08/20 10:49:17;0.00;0.00;0.62;0.00;0.00;0.62;1.73;1.50;;;33.40;33.40;;;;;;2221089;62;20413;-60
2023/08/20 10:52:02;0.00;0.00;0.62;0.00;0.00;0.62;2.37;1.50;;;33.40;33.40;;;;;;2221147;62;20997;-60
2023/08/20 10:54:52;0.00;0.00;0.62;0.00;0.00;0.62;1.70;1.40;;;33.40;33.40;;;;;;2220112;62;20389;-60